Meloria — IBXK — position and weather

sailwx.info

Track history (hours):
 
Tides and Currents Weather Stations Pressure Air Temp Water Temp Dewpoint Dewpoint Depression Visibility Wind Speed Wind Dir Waves Ship Positions

Meloria

Last reported at 2015-Aug-30 13:28 UTC. Time now 2015-Aug-30 13:57 UTC.
Position N 38°13' E 015°16'.

Length 176 m; draft 7.2 m.

Type: Tanker. MMSI: 247171100.

Date/timePositionNaut miles runAvg speedWind from/ knotsBaromVisibWave heightAir tempDewpointWater temp
2015-Aug-30 13:28N 38°13' E 015°16'0 0.0
2015-Aug-30 12:28N 38°13' E 015°16'0 0.0
2015-Aug-30 11:28N 38°13' E 015°16'0 0.0
2015-Aug-30 10:28N 38°13' E 015°16'0 0.0
2015-Aug-30 09:28N 38°13' E 015°16'0 0.0
2015-Aug-30 08:28N 38°13' E 015°16'0 0.0
2015-Aug-30 07:31N 38°13' E 015°16'0 0.0
2015-Aug-30 06:31N 38°13' E 015°16'0 0.0
2015-Aug-30 05:28N 38°13' E 015°16'0 0.0
2015-Aug-30 04:28N 38°13' E 015°16'0 0.0
2015-Aug-30 03:28N 38°13' E 015°16'0 0.0
2015-Aug-30 02:28N 38°13' E 015°16'0 0.0
2015-Aug-30 01:28N 38°13' E 015°16'0 0.0
2015-Aug-30 00:28N 38°13' E 015°16'0 0.0
2015-Aug-29 23:28N 38°13' E 015°16'0 0.0
2015-Aug-29 22:28N 38°13' E 015°16'0 0.0
2015-Aug-29 21:28N 38°13' E 015°16'0 0.0
2015-Aug-29 20:34N 38°13' E 015°16'0 0.0
2015-Aug-29 19:27N 38°13' E 015°16'0 0.0
2015-Aug-29 18:33N 38°13' E 015°16'0 0.0
2015-Aug-29 17:33N 38°13' E 015°16'1 0.4
2015-Aug-29 15:29N 38°13' E 015°17'0 0.0
2015-Aug-29 14:29N 38°13' E 015°17'0 0.0
2015-Aug-29 13:29N 38°13' E 015°17'0 0.0
2015-Aug-29 12:29N 38°13' E 015°17'0 0.0
2015-Aug-29 11:29N 38°13' E 015°17'0 0.0
2015-Aug-29 10:29N 38°13' E 015°17'0 0.0
2015-Aug-29 09:29N 38°13' E 015°17'0 0.0
2015-Aug-29 08:29N 38°13' E 015°17'0 0.0
2015-Aug-29 07:29N 38°13' E 015°17'0 0.0
2015-Aug-29 06:29N 38°13' E 015°17'0 0.1
2015-Aug-29 05:29N 38°13' E 015°17'0 0.0
2015-Aug-29 04:29N 38°13' E 015°17'0 0.1
2015-Aug-29 03:29N 38°13' E 015°17'0 0.1
2015-Aug-29 02:29N 38°13' E 015°17'0 0.1
2015-Aug-29 01:29N 38°13' E 015°17'0 0.1
2015-Aug-29 00:29N 38°13' E 015°17'0 0.1
2015-Aug-28 23:29N 38°13' E 015°17'0 0.1
2015-Aug-28 22:29N 38°13' E 015°17'0 0.0
2015-Aug-28 21:29N 38°13' E 015°17'0 0.0
2015-Aug-28 20:31N 38°13' E 015°17'8 8.5
2015-Aug-28 19:34N 38°21' E 015°15'1313.1
2015-Aug-28 18:34N 38°34' E 015°12'1313.2
2015-Aug-28 17:33N 38°47' E 015°08'2813.5
2015-Aug-28 15:29N 39°13' E 014°54'2813.3
2015-Aug-28 13:22N 39°39' E 014°39'1113.4
2015-Aug-28 12:34N 39°49' E 014°33'1313.2
2015-Aug-28 11:34N 40°01' E 014°26'1313.2
2015-Aug-28 10:33N 40°13' E 014°19'1413.4
2015-Aug-28 09:32N 40°25' E 014°12'1212.4
2015-Aug-28 08:33N 40°38' E 014°11'1313.0
2015-Aug-28 07:33N 40°49' E 014°18'1 0.6
2015-Aug-28 05:32N 40°50' E 014°18'0 0.0
2015-Aug-28 04:32N 40°50' E 014°18'0 0.0
2015-Aug-28 02:23N 40°50' E 014°18'0 0.0
2015-Aug-28 00:29N 40°50' E 014°18'0 0.0
2015-Aug-27 23:32N 40°50' E 014°18'0 0.0
2015-Aug-27 20:17N 40°50' E 014°18'0 0.0
2015-Aug-27 18:11N 40°50' E 014°18'0 0.0
2015-Aug-27 14:05N 40°50' E 014°18'0 0.0
2015-Aug-27 12:23N 40°50' E 014°18'0 0.0
2015-Aug-27 10:11N 40°50' E 014°18'0 0.0
2015-Aug-26 20:19N 40°50' E 014°18'0 0.0
2015-Aug-26 12:13N 40°50' E 014°18'0 0.0
2015-Aug-26 11:22N 40°50' E 014°18'0 0.0
2015-Aug-26 10:16N 40°50' E 014°18'0 0.1
2015-Aug-26 04:33N 40°50' E 014°18'2 1.7
2015-Aug-26 03:32N 40°48' E 014°19'0 0.0
2015-Aug-26 02:29N 40°48' E 014°19'0 0.0
2015-Aug-26 01:32N 40°48' E 014°19'0 0.0
2015-Aug-26 00:29N 40°48' E 014°19'0 0.0
2015-Aug-25 23:32N 40°48' E 014°19'0 0.1
2015-Aug-25 22:20N 40°48' E 014°19'0 0.5
2015-Aug-25 21:33N 40°48' E 014°19'1010.1
2015-Aug-25 20:33N 40°39' E 014°12'1111.4
2015-Aug-25 19:33N 40°28' E 014°12'12412.3
2015-Aug-25 09:29N 38°36' E 015°20'1212.6
2015-Aug-25 08:33N 38°24' E 015°18'1110.9
2015-Aug-25 07:33N 38°13' E 015°15'0 0.0
2015-Aug-25 06:33N 38°13' E 015°15'0 0.1
2015-Aug-25 05:33N 38°13' E 015°15'1 0.9
2015-Aug-25 04:33N 38°13' E 015°16'0 0.0
2015-Aug-25 03:28N 38°13' E 015°16'0 0.0
2015-Aug-25 02:28N 38°13' E 015°16'0 0.0
2015-Aug-25 01:28N 38°13' E 015°16'0 0.0
2015-Aug-25 00:28N 38°13' E 015°16'0 0.0
2015-Aug-24 23:28N 38°13' E 015°16'0 0.0
2015-Aug-24 22:28N 38°13' E 015°16'0 0.0
2015-Aug-24 21:28N 38°13' E 015°16'0 0.0
2015-Aug-24 20:28N 38°13' E 015°16'0 0.0
2015-Aug-24 19:22N 38°13' E 015°16'0 0.0
2015-Aug-24 18:28N 38°13' E 015°16'0 0.0
2015-Aug-24 17:28N 38°13' E 015°16'0 0.0
2015-Aug-24 16:28N 38°13' E 015°16'0 0.0
2015-Aug-24 15:28N 38°13' E 015°16'0 0.0
2015-Aug-24 14:28N 38°13' E 015°16'0 0.0
2015-Aug-24 13:28N 38°13' E 015°16'0 0.0
2015-Aug-24 12:28N 38°13' E 015°16'0 0.0
2015-Aug-24 11:28N 38°13' E 015°16'0 0.0
2015-Aug-24 10:28N 38°13' E 015°16'0 0.0
2015-Aug-24 09:28N 38°13' E 015°16'0 0.0
2015-Aug-24 08:28N 38°13' E 015°16'0 0.0
2015-Aug-24 07:28N 38°13' E 015°16'0 0.0
2015-Aug-24 06:28N 38°13' E 015°16'0 0.0
2015-Aug-24 05:28N 38°13' E 015°16'0 0.0
2015-Aug-24 04:28N 38°13' E 015°16'0 0.0
2015-Aug-24 03:28N 38°13' E 015°16'0 0.0
2015-Aug-24 02:28N 38°13' E 015°16'0 0.0
2015-Aug-24 01:28N 38°13' E 015°16'0 0.0
2015-Aug-24 00:28N 38°13' E 015°16'0 0.0
2015-Aug-23 23:28N 38°13' E 015°16'0 0.0
2015-Aug-23 22:28N 38°13' E 015°16'0 0.0
2015-Aug-23 21:34N 38°13' E 015°16'0 0.0
2015-Aug-23 20:34N 38°13' E 015°16'0 0.0
2015-Aug-23 19:33N 38°13' E 015°16'0 0.0
2015-Aug-23 18:33N 38°13' E 015°16'0 0.0
2015-Aug-23 17:33N 38°13' E 015°16'0 0.0
2015-Aug-23 16:27N 38°13' E 015°16'2 1.8
2015-Aug-23 15:33N 38°13' E 015°18'0 0.2
2015-Aug-23 14:32N 38°13' E 015°18'0 0.0
2015-Aug-23 13:32N 38°13' E 015°18'0 0.0
2015-Aug-23 12:32N 38°13' E 015°18'0 0.0
2015-Aug-23 11:32N 38°13' E 015°18'0 0.0
2015-Aug-23 10:32N 38°13' E 015°18'0 0.0
2015-Aug-23 09:26N 38°13' E 015°18'0 0.1
2015-Aug-23 08:32N 38°13' E 015°18'0 0.1
2015-Aug-23 07:32N 38°13' E 015°18'0 0.1
2015-Aug-23 06:29N 38°13' E 015°18'  
Track history (hours):
 
Tides and Currents Weather Stations Pressure Air Temp Water Temp Dewpoint Dewpoint Depression Visibility Wind Speed Wind Dir Waves Ship Positions

Meloria

Last reported at 2015-Aug-30 13:28 UTC. Time now 2015-Aug-30 13:57 UTC.
Position N 38°13' E 015°16'.

Length 176 m; draft 7.2 m.

Type: Tanker. MMSI: 247171100.

Date/timePositionNaut miles runAvg speedWind from/ knotsBaromVisibWave heightAir tempDewpointWater temp
2015-Aug-30 13:28N 38°13' E 015°16'0 0.0
2015-Aug-30 12:28N 38°13' E 015°16'0 0.0
2015-Aug-30 11:28N 38°13' E 015°16'0 0.0
2015-Aug-30 10:28N 38°13' E 015°16'0 0.0
2015-Aug-30 09:28N 38°13' E 015°16'0 0.0
2015-Aug-30 08:28N 38°13' E 015°16'0 0.0
2015-Aug-30 07:31N 38°13' E 015°16'0 0.0
2015-Aug-30 06:31N 38°13' E 015°16'0 0.0
2015-Aug-30 05:28N 38°13' E 015°16'0 0.0
2015-Aug-30 04:28N 38°13' E 015°16'0 0.0
2015-Aug-30 03:28N 38°13' E 015°16'0 0.0
2015-Aug-30 02:28N 38°13' E 015°16'0 0.0
2015-Aug-30 01:28N 38°13' E 015°16'0 0.0
2015-Aug-30 00:28N 38°13' E 015°16'0 0.0
2015-Aug-29 23:28N 38°13' E 015°16'0 0.0
2015-Aug-29 22:28N 38°13' E 015°16'0 0.0
2015-Aug-29 21:28N 38°13' E 015°16'0 0.0
2015-Aug-29 20:34N 38°13' E 015°16'0 0.0
2015-Aug-29 19:27N 38°13' E 015°16'0 0.0
2015-Aug-29 18:33N 38°13' E 015°16'0 0.0
2015-Aug-29 17:33N 38°13' E 015°16'1 0.4
2015-Aug-29 15:29N 38°13' E 015°17'0 0.0
2015-Aug-29 14:29N 38°13' E 015°17'0 0.0
2015-Aug-29 13:29N 38°13' E 015°17'0 0.0
2015-Aug-29 12:29N 38°13' E 015°17'0 0.0
2015-Aug-29 11:29N 38°13' E 015°17'0 0.0
2015-Aug-29 10:29N 38°13' E 015°17'0 0.0
2015-Aug-29 09:29N 38°13' E 015°17'0 0.0
2015-Aug-29 08:29N 38°13' E 015°17'0 0.0
2015-Aug-29 07:29N 38°13' E 015°17'0 0.0
2015-Aug-29 06:29N 38°13' E 015°17'0 0.1
2015-Aug-29 05:29N 38°13' E 015°17'0 0.0
2015-Aug-29 04:29N 38°13' E 015°17'0 0.1
2015-Aug-29 03:29N 38°13' E 015°17'0 0.1
2015-Aug-29 02:29N 38°13' E 015°17'0 0.1
2015-Aug-29 01:29N 38°13' E 015°17'0 0.1
2015-Aug-29 00:29N 38°13' E 015°17'0 0.1
2015-Aug-28 23:29N 38°13' E 015°17'0 0.1
2015-Aug-28 22:29N 38°13' E 015°17'0 0.0
2015-Aug-28 21:29N 38°13' E 015°17'0 0.0
2015-Aug-28 20:31N 38°13' E 015°17'8 8.5
2015-Aug-28 19:34N 38°21' E 015°15'1313.1
2015-Aug-28 18:34N 38°34' E 015°12'1313.2
2015-Aug-28 17:33N 38°47' E 015°08'2813.5
2015-Aug-28 15:29N 39°13' E 014°54'2813.3
2015-Aug-28 13:22N 39°39' E 014°39'1113.4
2015-Aug-28 12:34N 39°49' E 014°33'1313.2
2015-Aug-28 11:34N 40°01' E 014°26'1313.2
2015-Aug-28 10:33N 40°13' E 014°19'1413.4
2015-Aug-28 09:32N 40°25' E 014°12'1212.4
2015-Aug-28 08:33N 40°38' E 014°11'1313.0
2015-Aug-28 07:33N 40°49' E 014°18'1 0.6
2015-Aug-28 05:32N 40°50' E 014°18'0 0.0
2015-Aug-28 04:32N 40°50' E 014°18'0 0.0
2015-Aug-28 02:23N 40°50' E 014°18'0 0.0
2015-Aug-28 00:29N 40°50' E 014°18'0 0.0
2015-Aug-27 23:32N 40°50' E 014°18'0 0.0
2015-Aug-27 20:17N 40°50' E 014°18'0 0.0
2015-Aug-27 18:11N 40°50' E 014°18'0 0.0
2015-Aug-27 14:05N 40°50' E 014°18'0 0.0
2015-Aug-27 12:23N 40°50' E 014°18'0 0.0
2015-Aug-27 10:11N 40°50' E 014°18'0 0.0
2015-Aug-26 20:19N 40°50' E 014°18'0 0.0
2015-Aug-26 12:13N 40°50' E 014°18'0 0.0
2015-Aug-26 11:22N 40°50' E 014°18'0 0.0
2015-Aug-26 10:16N 40°50' E 014°18'0 0.1
2015-Aug-26 04:33N 40°50' E 014°18'2 1.7
2015-Aug-26 03:32N 40°48' E 014°19'0 0.0
2015-Aug-26 02:29N 40°48' E 014°19'0 0.0
2015-Aug-26 01:32N 40°48' E 014°19'0 0.0
2015-Aug-26 00:29N 40°48' E 014°19'0 0.0
2015-Aug-25 23:32N 40°48' E 014°19'0 0.1
2015-Aug-25 22:20N 40°48' E 014°19'0 0.5
2015-Aug-25 21:33N 40°48' E 014°19'1010.1
2015-Aug-25 20:33N 40°39' E 014°12'1111.4
2015-Aug-25 19:33N 40°28' E 014°12'12412.3
2015-Aug-25 09:29N 38°36' E 015°20'1212.6
2015-Aug-25 08:33N 38°24' E 015°18'1110.9
2015-Aug-25 07:33N 38°13' E 015°15'0 0.0
2015-Aug-25 06:33N 38°13' E 015°15'0 0.1
2015-Aug-25 05:33N 38°13' E 015°15'1 0.9
2015-Aug-25 04:33N 38°13' E 015°16'0 0.0
2015-Aug-25 03:28N 38°13' E 015°16'0 0.0
2015-Aug-25 02:28N 38°13' E 015°16'0 0.0
2015-Aug-25 01:28N 38°13' E 015°16'0 0.0
2015-Aug-25 00:28N 38°13' E 015°16'0 0.0
2015-Aug-24 23:28N 38°13' E 015°16'0 0.0
2015-Aug-24 22:28N 38°13' E 015°16'0 0.0
2015-Aug-24 21:28N 38°13' E 015°16'0 0.0
2015-Aug-24 20:28N 38°13' E 015°16'0 0.0
2015-Aug-24 19:22N 38°13' E 015°16'0 0.0
2015-Aug-24 18:28N 38°13' E 015°16'0 0.0
2015-Aug-24 17:28N 38°13' E 015°16'0 0.0
2015-Aug-24 16:28N 38°13' E 015°16'0 0.0
2015-Aug-24 15:28N 38°13' E 015°16'0 0.0
2015-Aug-24 14:28N 38°13' E 015°16'0 0.0
2015-Aug-24 13:28N 38°13' E 015°16'0 0.0
2015-Aug-24 12:28N 38°13' E 015°16'0 0.0
2015-Aug-24 11:28N 38°13' E 015°16'0 0.0
2015-Aug-24 10:28N 38°13' E 015°16'0 0.0
2015-Aug-24 09:28N 38°13' E 015°16'0 0.0
2015-Aug-24 08:28N 38°13' E 015°16'0 0.0
2015-Aug-24 07:28N 38°13' E 015°16'0 0.0
2015-Aug-24 06:28N 38°13' E 015°16'0 0.0
2015-Aug-24 05:28N 38°13' E 015°16'0 0.0
2015-Aug-24 04:28N 38°13' E 015°16'0 0.0
2015-Aug-24 03:28N 38°13' E 015°16'0 0.0
2015-Aug-24 02:28N 38°13' E 015°16'0 0.0
2015-Aug-24 01:28N 38°13' E 015°16'0 0.0
2015-Aug-24 00:28N 38°13' E 015°16'0 0.0
2015-Aug-23 23:28N 38°13' E 015°16'0 0.0
2015-Aug-23 22:28N 38°13' E 015°16'0 0.0
2015-Aug-23 21:34N 38°13' E 015°16'0 0.0
2015-Aug-23 20:34N 38°13' E 015°16'0 0.0
2015-Aug-23 19:33N 38°13' E 015°16'0 0.0
2015-Aug-23 18:33N 38°13' E 015°16'0 0.0
2015-Aug-23 17:33N 38°13' E 015°16'0 0.0
2015-Aug-23 16:27N 38°13' E 015°16'2 1.8
2015-Aug-23 15:33N 38°13' E 015°18'0 0.2
2015-Aug-23 14:32N 38°13' E 015°18'0 0.0
2015-Aug-23 13:32N 38°13' E 015°18'0 0.0
2015-Aug-23 12:32N 38°13' E 015°18'0 0.0
2015-Aug-23 11:32N 38°13' E 015°18'0 0.0
2015-Aug-23 10:32N 38°13' E 015°18'0 0.0
2015-Aug-23 09:26N 38°13' E 015°18'0 0.1
2015-Aug-23 08:32N 38°13' E 015°18'0 0.1
2015-Aug-23 07:32N 38°13' E 015°18'0 0.1
2015-Aug-23 06:29N 38°13' E 015°18'  

Dump ship's entire track history